createdAt,value
2018-05-02T00:01:27.402Z,9.20
2018-05-02T00:03:55.026Z,8.73
2018-05-02T00:06:22.624Z,8.30
2018-05-02T00:08:50.199Z,9.00
2018-05-02T00:11:17.800Z,9.47
2018-05-02T00:16:19.463Z,9.00
2018-05-02T00:18:47.034Z,9.23
2018-05-02T00:21:14.628Z,9.93
2018-05-02T00:23:42.996Z,8.90
2018-05-02T00:26:11.821Z,9.87
2018-05-02T00:28:39.502Z,10.57
2018-05-02T00:31:07.807Z,8.60
2018-05-02T00:33:35.383Z,9.50
2018-05-02T00:36:03.487Z,8.93
2018-05-02T00:38:31.919Z,8.27
2018-05-02T00:40:59.530Z,9.83
2018-05-02T00:43:27.109Z,9.33
2018-05-02T00:45:54.708Z,8.47
2018-05-02T00:48:22.306Z,10.77
2018-05-02T00:50:49.912Z,9.60
2018-05-02T00:53:17.595Z,9.43
2018-05-02T00:55:45.175Z,8.43
2018-05-02T00:58:13.579Z,11.17
2018-05-02T01:00:41.131Z,8.30
2018-05-02T01:03:08.751Z,8.50
2018-05-02T01:05:36.328Z,8.70
2018-05-02T01:08:04.025Z,9.70
2018-05-02T01:10:31.668Z,9.40
2018-05-02T01:12:59.268Z,8.10
2018-05-02T01:15:26.895Z,10.23
2018-05-02T01:17:55.295Z,8.13
2018-05-02T01:20:23.910Z,7.70
2018-05-02T01:22:51.511Z,9.23
2018-05-02T01:25:19.873Z,8.87
2018-05-02T01:27:47.461Z,8.70
2018-05-02T01:30:15.809Z,9.60
2018-05-02T01:32:43.932Z,9.37
2018-05-02T01:35:11.510Z,10.20
2018-05-02T01:37:39.103Z,10.13
2018-05-02T01:40:06.680Z,8.57
2018-05-02T01:42:34.611Z,8.37
2018-05-02T01:45:02.197Z,8.97
2018-05-02T01:47:29.760Z,8.67
2018-05-02T01:49:57.356Z,8.80
2018-05-02T01:52:24.911Z,8.37
2018-05-02T01:54:53.264Z,8.83
2018-05-02T01:57:20.811Z,8.63
2018-05-02T01:59:48.397Z,9.13
2018-05-02T02:02:15.944Z,8.80
2018-05-02T02:04:43.523Z,8.33
2018-05-02T02:07:11.067Z,9.00
2018-05-02T02:09:38.662Z,9.30
2018-05-02T02:12:06.245Z,8.50
2018-05-02T02:14:33.809Z,9.63
2018-05-02T02:17:01.388Z,8.80
2018-05-02T02:19:28.957Z,8.40
2018-05-02T02:21:56.545Z,9.03
2018-05-02T02:24:24.895Z,8.87
2018-05-02T02:26:52.497Z,8.63
2018-05-02T02:29:20.840Z,9.40
2018-05-02T02:31:48.460Z,9.23
2018-05-02T02:34:16.073Z,9.37
2018-05-02T02:36:43.634Z,8.70
2018-05-02T02:39:11.192Z,9.13
2018-05-02T02:41:39.680Z,9.50
2018-05-02T02:44:07.230Z,10.50
2018-05-02T02:46:34.867Z,9.83
2018-05-02T02:49:02.446Z,11.10
2018-05-02T02:51:30.037Z,10.83
2018-05-02T02:53:57.596Z,9.57
2018-05-02T02:56:25.175Z,9.03
2018-05-02T02:58:53.512Z,9.10
2018-05-02T03:01:21.118Z,9.20
2018-05-02T03:03:49.446Z,9.10
2018-05-02T03:06:17.040Z,10.40
2018-05-02T03:08:45.496Z,10.00
2018-05-02T03:11:13.064Z,10.03
2018-05-02T03:13:40.652Z,10.27
2018-05-02T03:16:08.976Z,9.30
2018-05-02T03:18:36.536Z,9.00
2018-05-02T03:21:04.097Z,9.93
2018-05-02T03:23:31.691Z,9.80
2018-05-02T03:25:59.276Z,9.40
2018-05-02T03:28:27.626Z,8.97
2018-05-02T03:30:55.199Z,10.43
2018-05-02T03:33:22.783Z,10.63
2018-05-02T03:35:51.123Z,10.83
2018-05-02T03:38:18.744Z,13.33
2018-05-02T03:40:46.367Z,10.83
2018-05-02T03:43:14.765Z,9.57
2018-05-02T03:45:42.386Z,8.93
2018-05-02T03:48:09.966Z,11.67
2018-05-02T03:50:37.541Z,10.20
2018-05-02T03:53:05.552Z,10.60
2018-05-02T03:55:33.142Z,10.70
2018-05-02T03:58:00.715Z,11.40
2018-05-02T04:00:39.975Z,10.47
2018-05-02T04:03:20.108Z,10.70
2018-05-02T04:05:59.661Z,9.90
2018-05-02T04:08:28.011Z,10.07
2018-05-02T04:10:55.618Z,10.70
2018-05-02T04:13:23.179Z,8.50
2018-05-02T04:15:50.794Z,8.57
2018-05-02T04:18:19.125Z,11.13
2018-05-02T04:20:46.747Z,10.63
2018-05-02T04:23:14.326Z,10.20
2018-05-02T04:25:42.771Z,9.80
2018-05-02T04:28:10.371Z,11.27
2018-05-02T04:30:38.688Z,10.07
2018-05-02T04:33:07.040Z,10.00
2018-05-02T04:35:34.616Z,9.97
2018-05-02T04:38:02.187Z,10.20
2018-05-02T04:40:29.781Z,10.97
2018-05-02T04:42:57.378Z,10.60
2018-05-02T04:45:25.699Z,11.10
2018-05-02T04:47:53.310Z,9.83
2018-05-02T04:50:21.659Z,9.53
2018-05-02T04:52:49.311Z,9.23
2018-05-02T04:55:16.866Z,8.40
2018-05-02T04:57:45.175Z,8.27
2018-05-02T05:00:12.751Z,8.80
2018-05-02T05:02:41.085Z,9.07
2018-05-02T05:05:08.671Z,9.30
2018-05-02T05:07:36.252Z,8.80
2018-05-02T05:10:04.607Z,9.77
2018-05-02T05:12:32.192Z,8.40
2018-05-02T05:15:00.555Z,7.20
2018-05-02T05:17:28.132Z,8.30
2018-05-02T05:19:56.480Z,9.90
2018-05-02T05:22:24.108Z,8.00
2018-05-02T05:24:51.667Z,8.50
2018-05-02T05:27:19.249Z,8.03
2018-05-02T05:29:46.833Z,10.63
2018-05-02T05:32:14.423Z,8.10
2018-05-02T05:34:42.772Z,8.00
2018-05-02T05:37:10.340Z,8.90
2018-05-02T05:39:37.929Z,9.90
2018-05-02T05:42:06.400Z,8.93
2018-05-02T05:44:34.752Z,7.90
2018-05-02T05:47:02.370Z,7.90
2018-05-02T05:49:29.948Z,7.47
2018-05-02T05:51:57.562Z,7.90
2018-05-02T05:54:26.094Z,8.43
2018-05-02T05:56:54.316Z,8.20
2018-05-02T05:59:21.897Z,8.37
2018-05-02T06:01:50.243Z,7.57
2018-05-02T06:04:17.836Z,6.87
2018-05-02T06:06:45.510Z,7.80
2018-05-02T06:09:13.036Z,6.90
2018-05-02T06:11:41.389Z,7.27
2018-05-02T06:14:08.974Z,8.80
2018-05-02T06:16:37.360Z,8.60
2018-05-02T06:19:05.688Z,8.43
2018-05-02T06:21:33.292Z,8.40
2018-05-02T06:24:00.905Z,9.63
2018-05-02T06:26:28.572Z,9.10
2018-05-02T06:28:56.234Z,9.20
2018-05-02T06:31:23.841Z,8.30
2018-05-02T06:33:51.447Z,9.00
2018-05-02T06:36:19.040Z,9.60
2018-05-02T06:38:46.648Z,8.50
2018-05-02T06:41:15.028Z,8.00
2018-05-02T06:43:43.409Z,9.57
2018-05-02T06:46:11.737Z,7.60
2018-05-02T06:48:39.340Z,7.90
2018-05-02T06:51:07.670Z,7.97
2018-05-02T06:53:35.288Z,7.30
2018-05-02T06:56:03.713Z,6.97
2018-05-02T06:58:31.321Z,7.20
2018-05-02T07:01:00.461Z,9.97
2018-05-02T07:03:28.891Z,8.47
2018-05-02T07:05:56.452Z,6.87
2018-05-02T07:08:24.065Z,7.33
2018-05-02T07:10:51.636Z,8.97
2018-05-02T07:13:19.268Z,8.37
2018-05-02T07:15:46.847Z,7.83
2018-05-02T07:18:14.427Z,8.43
2018-05-02T07:20:42.780Z,7.10
2018-05-02T07:23:10.411Z,7.90
2018-05-02T07:25:39.029Z,7.53
2018-05-02T07:28:06.629Z,10.80
2018-05-02T07:30:34.193Z,8.03
2018-05-02T07:33:01.976Z,7.30
2018-05-02T07:35:30.242Z,7.33
2018-05-02T07:37:57.850Z,7.13
2018-05-02T07:40:25.440Z,7.13
2018-05-02T07:42:53.033Z,6.80
2018-05-02T07:45:21.349Z,7.00
2018-05-02T07:47:48.943Z,7.33
2018-05-02T07:50:16.626Z,8.80
2018-05-02T07:52:44.185Z,6.90
2018-05-02T07:55:11.790Z,8.00
2018-05-02T07:57:39.404Z,7.07
2018-05-02T08:00:07.063Z,7.73
2018-05-02T08:02:34.667Z,7.03
2018-05-02T08:05:03.022Z,7.10
2018-05-02T08:07:30.600Z,7.00
2018-05-02T08:09:58.966Z,6.60
2018-05-02T08:12:26.540Z,7.43
2018-05-02T08:14:54.894Z,7.03
2018-05-02T08:17:22.461Z,6.57
2018-05-02T08:19:50.116Z,7.17
2018-05-02T08:22:17.680Z,6.47
2018-05-02T08:24:45.354Z,7.20
2018-05-02T08:27:13.701Z,7.00
2018-05-02T08:29:41.317Z,8.40
2018-05-02T08:32:09.676Z,7.07
2018-05-02T08:34:37.304Z,6.30
2018-05-02T08:37:04.903Z,7.53
2018-05-02T08:39:33.352Z,5.53
2018-05-02T08:42:01.679Z,5.80
2018-05-02T08:44:30.053Z,7.73
2018-05-02T08:46:58.495Z,5.83
2018-05-02T08:49:26.075Z,6.73
2018-05-02T08:51:53.671Z,6.03
2018-05-02T08:54:21.295Z,5.70
2018-05-02T08:56:48.908Z,7.13
2018-05-02T08:59:16.499Z,5.37
2018-05-02T09:01:44.123Z,5.60
2018-05-02T09:04:12.911Z,5.40
2018-05-02T09:06:41.789Z,4.40
2018-05-02T09:09:09.375Z,4.70
2018-05-02T09:11:36.932Z,4.87
2018-05-02T09:14:04.522Z,4.27
2018-05-02T09:16:32.105Z,4.60
2018-05-02T09:18:59.693Z,4.40
2018-05-02T09:21:28.057Z,4.23
2018-05-02T09:23:55.642Z,4.73
2018-05-02T09:26:23.224Z,4.97
2018-05-02T09:28:50.794Z,5.53
2018-05-02T09:31:18.355Z,4.77
2018-05-02T09:33:45.939Z,4.90
2018-05-02T09:36:13.532Z,5.67
2018-05-02T09:38:41.945Z,5.00
2018-05-02T09:41:09.498Z,5.40
2018-05-02T09:43:37.148Z,4.17
2018-05-02T09:46:04.724Z,4.30
2018-05-02T09:48:32.295Z,5.87
2018-05-02T09:50:59.863Z,4.87
2018-05-02T09:53:27.544Z,5.00
2018-05-02T09:55:55.926Z,6.90
2018-05-02T09:58:23.496Z,4.70
2018-05-02T10:00:51.092Z,7.00
2018-05-02T10:03:19.532Z,4.40
2018-05-02T10:05:47.126Z,4.30
2018-05-02T10:08:15.460Z,5.40
2018-05-02T10:10:43.070Z,4.43
2018-05-02T10:13:11.444Z,3.80
2018-05-02T10:15:39.798Z,4.00
2018-05-02T10:18:07.382Z,4.30
2018-05-02T10:20:35.804Z,5.07
2018-05-02T10:23:03.373Z,7.30
2018-05-02T10:25:30.959Z,5.30
2018-05-02T10:27:58.560Z,6.07
2018-05-02T10:30:26.908Z,3.57
2018-05-02T10:32:54.493Z,4.30
2018-05-02T10:35:22.854Z,4.70
2018-05-02T10:37:50.430Z,4.93
2018-05-02T10:40:18.805Z,3.90
2018-05-02T10:42:47.174Z,3.50
2018-05-02T10:45:14.766Z,3.73
2018-05-02T10:47:42.368Z,4.30
2018-05-02T10:50:09.937Z,4.37
2018-05-02T10:52:37.569Z,3.60
2018-05-02T10:55:05.127Z,3.60
2018-05-02T10:57:32.721Z,5.13
2018-05-02T11:00:00.380Z,4.80
2018-05-02T11:02:28.755Z,5.40
2018-05-02T11:04:56.609Z,6.50
2018-05-02T11:07:24.248Z,5.60
2018-05-02T11:09:51.849Z,5.50
2018-05-02T11:12:19.483Z,5.30
2018-05-02T11:14:47.037Z,4.80
2018-05-02T11:17:14.623Z,5.10
2018-05-02T11:19:42.283Z,6.70
2018-05-02T11:22:09.860Z,5.03
2018-05-02T11:24:37.451Z,4.47
2018-05-02T11:27:05.023Z,4.70
2018-05-02T11:29:33.388Z,3.90
2018-05-02T11:32:00.968Z,4.60
2018-05-02T11:34:29.307Z,3.80
2018-05-02T11:36:56.875Z,3.97
2018-05-02T11:39:24.462Z,3.70
2018-05-02T11:41:52.823Z,4.07
2018-05-02T11:44:20.388Z,4.33
2018-05-02T11:46:47.955Z,4.20
2018-05-02T11:49:16.365Z,4.10
2018-05-02T11:51:43.987Z,4.50
2018-05-02T11:54:11.599Z,4.40
2018-05-02T11:56:39.159Z,4.00
2018-05-02T11:59:06.742Z,3.80
2018-05-02T12:01:34.357Z,4.57
2018-05-02T12:04:02.684Z,4.97
2018-05-02T12:06:30.218Z,4.73
2018-05-02T12:08:57.815Z,4.60
2018-05-02T12:11:25.402Z,4.90
2018-05-02T12:13:53.750Z,5.17
2018-05-02T12:16:22.203Z,4.00
2018-05-02T12:18:50.667Z,3.80
2018-05-02T12:21:19.014Z,4.57
2018-05-02T12:23:46.586Z,5.67
2018-05-02T12:26:14.200Z,4.37
2018-05-02T12:28:41.764Z,3.77
2018-05-02T12:31:09.362Z,3.90
2018-05-02T12:33:36.951Z,4.20
2018-05-02T12:36:06.427Z,4.40
2018-05-02T12:38:34.063Z,4.50
2018-05-02T12:41:01.635Z,6.67
2018-05-02T12:43:29.232Z,6.03
2018-05-02T12:45:57.555Z,3.57
2018-05-02T12:48:25.215Z,4.83
2018-05-02T12:50:52.870Z,4.53
2018-05-02T12:53:20.445Z,4.43
2018-05-02T12:55:48.061Z,5.10
2018-05-02T12:58:16.519Z,6.60
2018-05-02T13:00:44.086Z,5.73
2018-05-02T13:03:11.730Z,4.47
2018-05-02T13:05:40.094Z,5.27
2018-05-02T13:08:07.776Z,4.27
2018-05-02T13:10:35.317Z,3.93
2018-05-02T13:13:02.947Z,3.87
2018-05-02T13:15:30.556Z,4.23
2018-05-02T13:17:58.183Z,4.07
2018-05-02T13:20:25.776Z,3.57
2018-05-02T13:22:53.388Z,3.30
2018-05-02T13:25:21.168Z,3.30
2018-05-02T13:27:48.779Z,4.27
2018-05-02T13:30:16.331Z,2.90
2018-05-02T13:32:43.913Z,3.40
2018-05-02T13:35:12.354Z,3.90
2018-05-02T13:37:39.939Z,3.50
2018-05-02T13:40:07.519Z,3.43
2018-05-02T13:42:35.888Z,3.80
2018-05-02T13:45:03.507Z,2.67
2018-05-02T13:47:31.119Z,3.10
2018-05-02T13:49:58.833Z,4.40
2018-05-02T13:52:26.439Z,4.83
2018-05-02T13:54:54.169Z,3.90
2018-05-02T13:57:21.763Z,2.93
2018-05-02T13:59:49.373Z,3.50
2018-05-02T14:02:17.039Z,3.90
2018-05-02T14:04:44.677Z,3.20
2018-05-02T14:07:12.279Z,3.30
2018-05-02T14:09:39.846Z,4.50
2018-05-02T14:12:08.253Z,3.40
2018-05-02T14:14:36.032Z,5.20
2018-05-02T14:17:04.382Z,3.23
2018-05-02T14:19:31.991Z,3.07
2018-05-02T14:21:59.576Z,3.57
2018-05-02T14:24:27.145Z,3.50
2018-05-02T14:26:54.795Z,3.40
2018-05-02T14:29:22.362Z,2.90
2018-05-02T14:31:49.928Z,3.53
2018-05-02T14:34:17.522Z,3.47
2018-05-02T14:36:45.107Z,3.40
2018-05-02T14:39:13.454Z,2.63
2018-05-02T14:41:41.030Z,4.50
2018-05-02T14:44:08.660Z,3.10
2018-05-02T14:46:36.296Z,3.77
2018-05-02T14:49:03.862Z,4.07
2018-05-02T14:51:31.507Z,4.30
2018-05-02T14:53:59.084Z,4.00
2018-05-02T14:56:26.650Z,4.20
2018-05-02T14:58:54.244Z,3.27
2018-05-02T15:01:21.824Z,4.60
2018-05-02T15:03:49.449Z,3.37
2018-05-02T15:06:17.010Z,3.10
2018-05-02T15:08:44.613Z,3.00
2018-05-02T15:11:13.044Z,3.20
2018-05-02T15:13:40.627Z,3.70
2018-05-02T15:16:08.200Z,3.30
2018-05-02T15:18:35.806Z,3.10
2018-05-02T15:21:03.403Z,3.47
2018-05-02T15:23:30.948Z,3.10
2018-05-02T15:25:58.557Z,3.50
2018-05-02T15:28:26.125Z,4.60
2018-05-02T15:30:54.486Z,4.90
2018-05-02T15:33:22.084Z,3.40
2018-05-02T15:35:49.707Z,4.10
2018-05-02T15:38:17.320Z,4.53
2018-05-02T15:40:44.900Z,5.60
2018-05-02T15:43:12.491Z,3.50
2018-05-02T15:45:40.082Z,4.43
2018-05-02T15:48:08.447Z,4.50
2018-05-02T15:50:36.828Z,4.83
2018-05-02T15:53:04.384Z,4.73
2018-05-02T15:55:31.981Z,4.53
2018-05-02T15:58:00.378Z,3.97
2018-05-02T16:00:27.923Z,4.67
2018-05-02T16:02:55.543Z,3.33
2018-05-02T16:05:23.133Z,4.27
2018-05-02T16:07:51.490Z,4.00
2018-05-02T16:10:19.092Z,4.00
2018-05-02T16:12:46.832Z,3.33
2018-05-02T16:15:16.396Z,3.30
2018-05-02T16:17:44.028Z,4.43
2018-05-02T16:20:11.617Z,3.43
2018-05-02T16:22:39.200Z,4.83
2018-05-02T16:25:06.805Z,3.43
2018-05-02T16:27:34.475Z,2.97
2018-05-02T16:30:01.967Z,3.70
2018-05-02T16:32:29.580Z,3.80
2018-05-02T16:34:57.158Z,4.00
2018-05-02T16:37:24.740Z,5.17
2018-05-02T16:39:52.361Z,4.00
2018-05-02T16:42:20.749Z,4.20
2018-05-02T16:44:48.351Z,3.73
2018-05-02T16:47:15.941Z,3.47
2018-05-02T16:49:43.508Z,6.43
2018-05-02T16:52:11.865Z,5.03
2018-05-02T16:54:39.433Z,4.50
2018-05-02T16:57:06.992Z,4.43
2018-05-02T16:59:34.685Z,6.70
2018-05-02T17:02:03.023Z,3.27
2018-05-02T17:04:30.706Z,3.63
2018-05-02T17:06:59.024Z,3.60
2018-05-02T17:09:26.719Z,3.83
2018-05-02T17:11:54.334Z,3.70
2018-05-02T17:14:21.935Z,3.70
2018-05-02T17:16:49.589Z,3.43
2018-05-02T17:19:17.123Z,4.00
2018-05-02T17:21:44.688Z,4.80
2018-05-02T17:24:12.276Z,4.10
2018-05-02T17:26:39.872Z,4.47
2018-05-02T17:29:07.461Z,4.00
2018-05-02T17:31:35.809Z,4.60
2018-05-02T17:34:03.404Z,7.13
2018-05-02T17:36:30.944Z,5.03
2018-05-02T17:38:59.275Z,4.10
2018-05-02T17:41:26.847Z,4.73
2018-05-02T17:43:54.432Z,4.13
2018-05-02T17:46:22.087Z,4.07
2018-05-02T17:48:50.370Z,4.23
2018-05-02T17:51:17.967Z,4.60
2018-05-02T17:53:45.553Z,4.87
2018-05-02T17:56:13.164Z,3.97
2018-05-02T17:58:40.884Z,6.50
2018-05-02T18:01:08.456Z,6.83
2018-05-02T18:03:36.022Z,4.13
2018-05-02T18:06:03.614Z,4.60
2018-05-02T18:08:31.949Z,4.70
2018-05-02T18:10:59.571Z,5.00
2018-05-02T18:13:27.166Z,3.87
2018-05-02T18:15:54.772Z,4.57
2018-05-02T18:18:22.329Z,5.27
2018-05-02T18:20:49.912Z,4.37
2018-05-02T18:23:18.288Z,5.40
2018-05-02T18:25:46.692Z,5.23
2018-05-02T18:28:14.300Z,6.77
2018-05-02T18:30:41.931Z,5.80
2018-05-02T18:33:09.522Z,6.63
2018-05-02T18:35:37.939Z,7.10
2018-05-02T18:38:06.319Z,7.10
2018-05-02T18:40:34.667Z,8.20
2018-05-02T18:43:02.285Z,7.77
2018-05-02T18:45:29.945Z,8.40
2018-05-02T18:47:57.541Z,9.43
2018-05-02T18:50:25.894Z,7.53
2018-05-02T18:52:53.476Z,8.07
2018-05-02T18:55:21.057Z,7.03
2018-05-02T18:57:48.672Z,7.00
2018-05-02T19:00:16.299Z,6.67
2018-05-02T19:02:44.719Z,5.30
2018-05-02T19:05:12.338Z,5.30
2018-05-02T19:07:39.918Z,6.90
2018-05-02T19:10:08.291Z,4.30
2018-05-02T19:12:36.672Z,4.87
2018-05-02T19:15:05.024Z,4.80
2018-05-02T19:17:32.645Z,5.27
2018-05-02T19:20:05.908Z,12.60
2018-05-02T19:22:34.312Z,11.00
2018-05-02T19:25:07.638Z,4.70
2018-05-02T19:27:35.234Z,4.83
2018-05-02T19:30:02.822Z,5.23
2018-05-02T19:32:35.987Z,5.57
2018-05-02T19:35:03.593Z,4.87
2018-05-02T19:37:31.204Z,5.00
2018-05-02T19:40:05.117Z,4.50
2018-05-02T19:42:39.169Z,4.93
2018-05-02T19:45:06.795Z,4.83
2018-05-02T19:47:34.374Z,4.53
2018-05-02T19:50:02.012Z,4.87
2018-05-02T19:52:35.305Z,4.70
2018-05-02T19:55:03.677Z,5.37
2018-05-02T19:57:31.273Z,6.00
2018-05-02T19:59:58.864Z,5.83
2018-05-02T20:02:32.009Z,5.70
2018-05-02T20:05:00.369Z,5.67
2018-05-02T20:07:33.470Z,5.63
2018-05-02T20:10:06.676Z,5.00
2018-05-02T20:12:40.580Z,5.40
2018-05-02T20:15:08.976Z,5.40
2018-05-02T20:17:37.324Z,5.50
2018-05-02T20:20:05.152Z,7.33
2018-05-02T20:22:32.760Z,6.70
2018-05-02T20:25:00.354Z,6.73
2018-05-02T20:27:28.720Z,4.80
2018-05-02T20:29:57.084Z,5.90
2018-05-02T20:32:24.748Z,5.43
2018-05-02T20:34:52.352Z,7.00
2018-05-02T20:37:19.946Z,5.50
2018-05-02T20:39:47.566Z,6.40
2018-05-02T20:42:15.271Z,6.67
2018-05-02T20:44:42.848Z,6.73
2018-05-02T20:47:11.250Z,6.10
2018-05-02T20:49:39.685Z,8.40
2018-05-02T20:52:07.275Z,6.90
2018-05-02T20:54:34.856Z,5.30
2018-05-02T20:57:03.237Z,5.13
2018-05-02T20:59:31.577Z,6.60
2018-05-02T21:01:59.949Z,5.60
2018-05-02T21:04:27.511Z,5.87
2018-05-02T21:06:55.087Z,5.60
2018-05-02T21:09:22.708Z,5.53
2018-05-02T21:11:50.327Z,6.07
2018-05-02T21:14:18.699Z,5.60
2018-05-02T21:16:47.027Z,6.27
2018-05-02T21:19:14.653Z,5.73
2018-05-02T21:21:43.018Z,8.80
2018-05-02T21:24:10.605Z,7.23
2018-05-02T21:26:38.958Z,8.13
2018-05-02T21:29:06.569Z,6.07
2018-05-02T21:31:34.135Z,6.57
2018-05-02T21:34:01.729Z,5.73
2018-05-02T21:36:29.295Z,5.70
2018-05-02T21:38:56.883Z,5.97
2018-05-02T21:41:25.233Z,6.00
2018-05-02T21:43:52.807Z,8.00
2018-05-02T21:46:21.160Z,5.43
2018-05-02T21:48:48.753Z,6.23
2018-05-02T21:51:17.091Z,6.70
2018-05-02T21:53:44.720Z,6.37
2018-05-02T21:56:12.279Z,6.67
2018-05-02T21:58:39.861Z,7.27
2018-05-02T22:01:07.416Z,6.57
2018-05-02T22:03:35.011Z,7.13
2018-05-02T22:06:02.612Z,7.80
2018-05-02T22:08:30.964Z,6.77
2018-05-02T22:10:58.533Z,8.40
2018-05-02T22:13:26.108Z,6.00
2018-05-02T22:15:54.447Z,6.07
2018-05-02T22:18:22.028Z,6.60
2018-05-02T22:20:49.637Z,5.70
2018-05-02T22:23:17.254Z,6.50
2018-05-02T22:25:44.812Z,7.00
2018-05-02T22:28:12.396Z,9.00
2018-05-02T22:30:40.000Z,7.10
2018-05-02T22:33:07.699Z,5.97
2018-05-02T22:35:35.308Z,6.20
2018-05-02T22:38:02.880Z,6.50
2018-05-02T22:40:30.461Z,6.27
2018-05-02T22:42:58.046Z,7.60
2018-05-02T22:45:25.607Z,6.07
2018-05-02T22:47:53.255Z,6.27
2018-05-02T22:50:20.826Z,7.07
2018-05-02T22:52:48.416Z,7.53
2018-05-02T22:55:16.788Z,6.63
2018-05-02T22:57:45.317Z,6.87
2018-05-02T23:00:12.864Z,6.80
2018-05-02T23:02:40.452Z,6.80
2018-05-02T23:05:08.053Z,5.87
2018-05-02T23:07:36.364Z,6.20
2018-05-02T23:10:04.020Z,6.30
2018-05-02T23:12:31.571Z,5.50
2018-05-02T23:14:59.212Z,6.43
2018-05-02T23:17:27.542Z,6.20
2018-05-02T23:19:55.110Z,6.20
2018-05-02T23:22:22.721Z,5.20
2018-05-02T23:24:51.060Z,5.63
2018-05-02T23:27:18.671Z,5.37
2018-05-02T23:29:46.288Z,6.60
2018-05-02T23:32:13.851Z,5.90
2018-05-02T23:34:41.445Z,6.43
2018-05-02T23:37:09.793Z,7.37
2018-05-02T23:39:37.369Z,8.43
2018-05-02T23:42:04.920Z,6.43
2018-05-02T23:44:32.487Z,6.10
2018-05-02T23:47:00.827Z,6.33
2018-05-02T23:49:28.427Z,5.93
2018-05-02T23:51:56.006Z,7.10
2018-05-02T23:54:24.350Z,7.53
2018-05-02T23:56:51.977Z,7.47
2018-05-02T23:59:19.653Z,7.37
